sensor_id;sensor_type;location;lat;lon;timestamp;P1;durP1;ratioP1;P2;durP2;ratioP2
73959;SDS011;62316;48.920;2.342;2023-04-24T04:02:30;4.00;;;4.00;;
73959;SDS011;62316;48.920;2.342;2023-04-24T04:05:03;8.00;;;5.00;;
73959;SDS011;62316;48.920;2.342;2023-04-24T04:07:28;3.75;;;3.75;;
73959;SDS011;62316;48.920;2.342;2023-04-24T04:09:55;5.50;;;3.00;;
73959;SDS011;62316;48.920;2.342;2023-04-24T04:12:20;7.75;;;3.75;;
73959;SDS011;62316;48.920;2.342;2023-04-24T04:14:49;3.50;;;3.50;;
73959;SDS011;62316;48.920;2.342;2023-04-24T04:17:23;4.50;;;4.50;;
73959;SDS011;62316;48.920;2.342;2023-04-24T04:19:55;4.25;;;3.25;;
73959;SDS011;62316;48.920;2.342;2023-04-24T04:22:25;4.00;;;4.00;;
73959;SDS011;62316;48.920;2.342;2023-04-24T04:24:55;4.50;;;4.00;;
73959;SDS011;62316;48.920;2.342;2023-04-24T04:27:28;8.75;;;5.25;;
73959;SDS011;62316;48.920;2.342;2023-04-24T04:30:00;4.00;;;3.50;;
73959;SDS011;62316;48.920;2.342;2023-04-24T04:32:33;2.25;;;1.75;;
73959;SDS011;62316;48.920;2.342;2023-04-24T04:35:00;2.75;;;2.25;;
73959;SDS011;62316;48.920;2.342;2023-04-24T04:37:29;8.75;;;4.25;;
73959;SDS011;62316;48.920;2.342;2023-04-24T04:39:55;8.00;;;4.75;;
73959;SDS011;62316;48.920;2.342;2023-04-24T04:42:20;2.25;;;2.25;;
73959;SDS011;62316;48.920;2.342;2023-04-24T04:44:46;3.25;;;3.25;;
73959;SDS011;62316;48.920;2.342;2023-04-24T04:47:11;3.25;;;3.25;;
73959;SDS011;62316;48.920;2.342;2023-04-24T04:49:40;5.50;;;5.50;;
73959;SDS011;62316;48.920;2.342;2023-04-24T04:52:06;3.25;;;3.25;;
73959;SDS011;62316;48.920;2.342;2023-04-24T04:54:31;4.75;;;4.75;;
73959;SDS011;62316;48.920;2.342;2023-04-24T04:56:56;6.25;;;5.00;;
73959;SDS011;62316;48.920;2.342;2023-04-24T04:59:22;5.75;;;5.50;;
73959;SDS011;62316;48.920;2.342;2023-04-24T05:01:47;5.00;;;4.25;;
73959;SDS011;62316;48.920;2.342;2023-04-24T05:04:13;4.25;;;4.25;;
73959;SDS011;62316;48.920;2.342;2023-04-24T05:06:39;8.00;;;6.00;;
73959;SDS011;62316;48.920;2.342;2023-04-24T05:09:04;8.00;;;3.50;;
73959;SDS011;62316;48.920;2.342;2023-04-24T05:11:30;3.75;;;3.00;;
73959;SDS011;62316;48.920;2.342;2023-04-24T05:13:58;5.00;;;4.00;;
73959;SDS011;62316;48.920;2.342;2023-04-24T05:16:27;8.00;;;5.25;;
73959;SDS011;62316;48.920;2.342;2023-04-24T05:18:52;5.33;;;3.00;;
73959;SDS011;62316;48.920;2.342;2023-04-24T05:21:18;6.33;;;5.33;;
73959;SDS011;62316;48.920;2.342;2023-04-24T05:23:43;5.25;;;4.75;;
73959;SDS011;62316;48.920;2.342;2023-04-24T05:26:09;5.75;;;5.75;;
73959;SDS011;62316;48.920;2.342;2023-04-24T05:28:34;8.25;;;6.75;;
73959;SDS011;62316;48.920;2.342;2023-04-24T05:31:01;4.00;;;4.00;;
73959;SDS011;62316;48.920;2.342;2023-04-24T05:33:27;6.50;;;5.50;;
73959;SDS011;62316;48.920;2.342;2023-04-24T05:35:52;5.75;;;4.50;;
73959;SDS011;62316;48.920;2.342;2023-04-24T05:38:18;5.50;;;5.25;;
73959;SDS011;62316;48.920;2.342;2023-04-24T05:40:44;10.50;;;7.00;;
73959;SDS011;62316;48.920;2.342;2023-04-24T05:43:12;5.50;;;5.50;;
73959;SDS011;62316;48.920;2.342;2023-04-24T05:45:38;5.75;;;3.25;;
73959;SDS011;62316;48.920;2.342;2023-04-24T05:48:04;8.50;;;4.25;;
73959;SDS011;62316;48.920;2.342;2023-04-24T05:50:29;9.75;;;7.00;;
73959;SDS011;62316;48.920;2.342;2023-04-24T05:52:55;11.25;;;7.00;;
73959;SDS011;62316;48.920;2.342;2023-04-24T05:55:23;7.50;;;6.00;;
73959;SDS011;62316;48.920;2.342;2023-04-24T05:57:49;9.50;;;6.25;;
73959;SDS011;62316;48.920;2.342;2023-04-24T06:00:14;8.00;;;8.00;;
73959;SDS011;62316;48.920;2.342;2023-04-24T06:02:40;10.25;;;7.25;;
73959;SDS011;62316;48.920;2.342;2023-04-24T06:05:06;8.50;;;6.75;;
73959;SDS011;62316;48.920;2.342;2023-04-24T06:07:33;10.25;;;9.00;;
73959;SDS011;62316;48.920;2.342;2023-04-24T06:09:58;9.25;;;7.00;;
73959;SDS011;62316;48.920;2.342;2023-04-24T06:12:24;7.25;;;6.25;;
73959;SDS011;62316;48.920;2.342;2023-04-24T06:14:50;9.25;;;8.00;;
73959;SDS011;62316;48.920;2.342;2023-04-24T06:17:16;8.50;;;7.50;;
73959;SDS011;62316;48.920;2.342;2023-04-24T06:19:42;8.25;;;8.25;;
73959;SDS011;62316;48.920;2.342;2023-04-24T06:22:07;9.50;;;6.50;;
73959;SDS011;62316;48.920;2.342;2023-04-24T06:24:33;6.75;;;6.50;;
73959;SDS011;62316;48.920;2.342;2023-04-24T06:26:59;11.00;;;10.00;;
73959;SDS011;62316;48.920;2.342;2023-04-24T06:29:26;9.50;;;8.00;;
73959;SDS011;62316;48.920;2.342;2023-04-24T06:31:52;10.00;;;7.00;;
73959;SDS011;62316;48.920;2.342;2023-04-24T06:34:17;10.25;;;9.00;;
73959;SDS011;62316;48.920;2.342;2023-04-24T06:36:43;7.75;;;7.50;;
73959;SDS011;62316;48.920;2.342;2023-04-24T06:39:08;10.25;;;8.25;;
73959;SDS011;62316;48.920;2.342;2023-04-24T06:41:34;13.75;;;11.50;;
73959;SDS011;62316;48.920;2.342;2023-04-24T06:44:00;13.75;;;10.75;;
73959;SDS011;62316;48.920;2.342;2023-04-24T06:46:25;12.00;;;11.00;;
73959;SDS011;62316;48.920;2.342;2023-04-24T06:48:52;11.00;;;9.75;;
73959;SDS011;62316;48.920;2.342;2023-04-24T06:51:24;12.00;;;9.00;;
73959;SDS011;62316;48.920;2.342;2023-04-24T06:53:53;11.75;;;10.50;;
73959;SDS011;62316;48.920;2.342;2023-04-24T06:56:19;12.50;;;11.50;;
73959;SDS011;62316;48.920;2.342;2023-04-24T06:58:45;13.75;;;11.00;;
73959;SDS011;62316;48.920;2.342;2023-04-24T07:01:11;14.75;;;14.75;;
73959;SDS011;62316;48.920;2.342;2023-04-24T07:03:36;9.00;;;9.00;;
73959;SDS011;62316;48.920;2.342;2023-04-24T07:06:02;12.25;;;12.25;;
73959;SDS011;62316;48.920;2.342;2023-04-24T07:08:34;13.25;;;12.50;;
73959;SDS011;62316;48.920;2.342;2023-04-24T07:11:00;10.25;;;10.25;;
73959;SDS011;62316;48.920;2.342;2023-04-24T07:13:26;15.50;;;14.50;;
73959;SDS011;62316;48.920;2.342;2023-04-24T07:15:53;9.25;;;8.50;;
73959;SDS011;62316;48.920;2.342;2023-04-24T07:18:20;16.00;;;12.25;;
73959;SDS011;62316;48.920;2.342;2023-04-24T07:20:46;13.50;;;13.50;;
73959;SDS011;62316;48.920;2.342;2023-04-24T07:23:11;12.75;;;12.75;;
73959;SDS011;62316;48.920;2.342;2023-04-24T07:25:37;15.25;;;12.00;;
73959;SDS011;62316;48.920;2.342;2023-04-24T07:28:03;14.00;;;12.75;;
73959;SDS011;62316;48.920;2.342;2023-04-24T07:30:29;13.25;;;12.25;;
73959;SDS011;62316;48.920;2.342;2023-04-24T07:32:55;16.50;;;15.50;;
73959;SDS011;62316;48.920;2.342;2023-04-24T07:35:20;11.75;;;10.00;;
73959;SDS011;62316;48.920;2.342;2023-04-24T07:37:46;12.25;;;11.00;;
73959;SDS011;62316;48.920;2.342;2023-04-24T07:40:14;17.75;;;15.50;;
73959;SDS011;62316;48.920;2.342;2023-04-24T07:42:39;15.00;;;14.75;;
73959;SDS011;62316;48.920;2.342;2023-04-24T07:45:05;15.75;;;12.50;;
73959;SDS011;62316;48.920;2.342;2023-04-24T07:47:31;15.75;;;14.25;;
73959;SDS011;62316;48.920;2.342;2023-04-24T07:49:57;17.25;;;15.25;;
73959;SDS011;62316;48.920;2.342;2023-04-24T07:52:23;16.75;;;13.50;;
73959;SDS011;62316;48.920;2.342;2023-04-24T07:54:49;13.50;;;12.25;;
73959;SDS011;62316;48.920;2.342;2023-04-24T07:57:15;13.75;;;11.00;;
73959;SDS011;62316;48.920;2.342;2023-04-24T07:59:40;18.25;;;17.50;;
73959;SDS011;62316;48.920;2.342;2023-04-24T08:02:06;14.00;;;12.00;;
73959;SDS011;62316;48.920;2.342;2023-04-24T08:04:32;16.25;;;13.25;;
73959;SDS011;62316;48.920;2.342;2023-04-24T08:06:57;16.50;;;15.50;;
73959;SDS011;62316;48.920;2.342;2023-04-24T08:12:31;16.50;;;14.75;;
73959;SDS011;62316;48.920;2.342;2023-04-24T08:14:57;16.75;;;14.00;;
73959;SDS011;62316;48.920;2.342;2023-04-24T08:17:23;15.25;;;15.25;;
73959;SDS011;62316;48.920;2.342;2023-04-24T08:19:49;21.50;;;17.50;;
73959;SDS011;62316;48.920;2.342;2023-04-24T08:22:16;16.75;;;14.50;;
73959;SDS011;62316;48.920;2.342;2023-04-24T08:24:41;20.50;;;17.25;;
73959;SDS011;62316;48.920;2.342;2023-04-24T08:30:47;19.75;;;15.75;;
73959;SDS011;62316;48.920;2.342;2023-04-24T08:33:22;16.50;;;16.50;;
73959;SDS011;62316;48.920;2.342;2023-04-24T08:35:47;17.50;;;16.00;;
73959;SDS011;62316;48.920;2.342;2023-04-24T08:38:13;18.00;;;15.00;;
73959;SDS011;62316;48.920;2.342;2023-04-24T08:40:38;23.25;;;17.75;;
73959;SDS011;62316;48.920;2.342;2023-04-24T08:43:04;18.50;;;16.75;;
73959;SDS011;62316;48.920;2.342;2023-04-24T08:45:30;18.75;;;17.25;;
73959;SDS011;62316;48.920;2.342;2023-04-24T08:47:55;17.75;;;15.50;;
73959;SDS011;62316;48.920;2.342;2023-04-24T08:50:23;13.00;;;11.00;;
73959;SDS011;62316;48.920;2.342;2023-04-24T08:52:51;18.50;;;15.75;;
73959;SDS011;62316;48.920;2.342;2023-04-24T08:55:22;21.00;;;16.00;;
73959;SDS011;62316;48.920;2.342;2023-04-24T08:57:50;17.50;;;14.00;;
73959;SDS011;62316;48.920;2.342;2023-04-24T09:00:17;14.00;;;13.25;;
73959;SDS011;62316;48.920;2.342;2023-04-24T09:02:44;19.50;;;14.50;;
73959;SDS011;62316;48.920;2.342;2023-04-24T09:05:10;17.25;;;15.50;;
73959;SDS011;62316;48.920;2.342;2023-04-24T09:07:36;17.75;;;15.75;;
73959;SDS011;62316;48.920;2.342;2023-04-24T09:10:03;23.75;;;22.50;;
73959;SDS011;62316;48.920;2.342;2023-04-24T09:12:29;20.00;;;17.00;;
73959;SDS011;62316;48.920;2.342;2023-04-24T09:14:54;24.75;;;22.50;;
73959;SDS011;62316;48.920;2.342;2023-04-24T09:17:21;20.00;;;18.50;;
73959;SDS011;62316;48.920;2.342;2023-04-24T09:19:47;18.50;;;16.50;;
73959;SDS011;62316;48.920;2.342;2023-04-24T09:22:13;16.75;;;13.50;;
73959;SDS011;62316;48.920;2.342;2023-04-24T09:24:40;20.75;;;19.75;;
73959;SDS011;62316;48.920;2.342;2023-04-24T09:27:05;22.00;;;19.25;;
73959;SDS011;62316;48.920;2.342;2023-04-24T09:29:32;16.25;;;13.25;;
73959;SDS011;62316;48.920;2.342;2023-04-24T09:32:18;18.00;;;15.50;;
73959;SDS011;62316;48.920;2.342;2023-04-24T09:34:46;18.00;;;18.00;;
73959;SDS011;62316;48.920;2.342;2023-04-24T09:37:15;20.50;;;15.00;;
73959;SDS011;62316;48.920;2.342;2023-04-24T09:42:45;10.75;;;6.50;;
73959;SDS011;62316;48.920;2.342;2023-04-24T09:45:12;18.00;;;18.00;;
73959;SDS011;62316;48.920;2.342;2023-04-24T09:47:38;22.75;;;17.75;;
73959;SDS011;62316;48.920;2.342;2023-04-24T09:50:14;19.75;;;18.75;;
73959;SDS011;62316;48.920;2.342;2023-04-24T09:52:44;21.75;;;17.75;;
73959;SDS011;62316;48.920;2.342;2023-04-24T09:55:12;17.25;;;15.75;;
73959;SDS011;62316;48.920;2.342;2023-04-24T09:58:02;22.25;;;18.25;;
73959;SDS011;62316;48.920;2.342;2023-04-24T10:00:36;20.25;;;19.25;;
73959;SDS011;62316;48.920;2.342;2023-04-24T10:03:18;23.00;;;21.00;;
73959;SDS011;62316;48.920;2.342;2023-04-24T10:06:08;16.50;;;15.00;;
73959;SDS011;62316;48.920;2.342;2023-04-24T10:08:40;14.00;;;14.00;;
73959;SDS011;62316;48.920;2.342;2023-04-24T10:11:06;18.00;;;16.25;;
73959;SDS011;62316;48.920;2.342;2023-04-24T10:13:33;17.00;;;17.00;;
73959;SDS011;62316;48.920;2.342;2023-04-24T10:16:01;19.75;;;18.00;;
73959;SDS011;62316;48.920;2.342;2023-04-24T10:18:26;17.50;;;14.75;;
73959;SDS011;62316;48.920;2.342;2023-04-24T10:20:52;21.00;;;19.50;;
73959;SDS011;62316;48.920;2.342;2023-04-24T10:23:19;16.00;;;16.00;;
73959;SDS011;62316;48.920;2.342;2023-04-24T10:25:45;15.00;;;14.00;;
73959;SDS011;62316;48.920;2.342;2023-04-24T10:28:11;20.00;;;16.50;;
73959;SDS011;62316;48.920;2.342;2023-04-24T10:30:37;15.25;;;12.50;;
73959;SDS011;62316;48.920;2.342;2023-04-24T10:33:05;18.50;;;16.75;;
73959;SDS011;62316;48.920;2.342;2023-04-24T10:35:32;16.25;;;14.00;;
73959;SDS011;62316;48.920;2.342;2023-04-24T10:38:05;16.25;;;16.25;;
73959;SDS011;62316;48.920;2.342;2023-04-24T10:40:33;17.75;;;15.25;;
73959;SDS011;62316;48.920;2.342;2023-04-24T10:43:01;20.50;;;17.50;;
73959;SDS011;62316;48.920;2.342;2023-04-24T10:45:28;19.25;;;18.00;;
73959;SDS011;62316;48.920;2.342;2023-04-24T10:47:57;18.50;;;18.50;;
73959;SDS011;62316;48.920;2.342;2023-04-24T10:50:26;21.50;;;19.50;;
73959;SDS011;62316;48.920;2.342;2023-04-24T10:52:52;14.50;;;14.50;;
73959;SDS011;62316;48.920;2.342;2023-04-24T10:58:15;22.25;;;19.00;;
73959;SDS011;62316;48.920;2.342;2023-04-24T11:00:42;13.50;;;12.50;;
73959;SDS011;62316;48.920;2.342;2023-04-24T11:03:23;11.75;;;11.75;;
73959;SDS011;62316;48.920;2.342;2023-04-24T11:08:23;22.00;;;19.50;;
73959;SDS011;62316;48.920;2.342;2023-04-24T11:10:57;16.50;;;15.75;;
73959;SDS011;62316;48.920;2.342;2023-04-24T11:13:31;14.00;;;13.50;;
73959;SDS011;62316;48.920;2.342;2023-04-24T11:16:29;15.25;;;14.25;;
73959;SDS011;62316;48.920;2.342;2023-04-24T11:19:08;14.75;;;14.00;;
73959;SDS011;62316;48.920;2.342;2023-04-24T11:24:23;11.25;;;8.25;;
73959;SDS011;62316;48.920;2.342;2023-04-24T11:27:37;14.25;;;12.50;;
73959;SDS011;62316;48.920;2.342;2023-04-24T11:29:44;17.00;;;17.00;;
73959;SDS011;62316;48.920;2.342;2023-04-24T11:32:14;16.75;;;16.75;;
73959;SDS011;62316;48.920;2.342;2023-04-24T11:34:44;11.75;;;10.50;;
73959;SDS011;62316;48.920;2.342;2023-04-24T11:37:11;15.50;;;13.00;;
73959;SDS011;62316;48.920;2.342;2023-04-24T11:39:36;14.00;;;12.00;;
73959;SDS011;62316;48.920;2.342;2023-04-24T11:42:03;16.50;;;13.25;;
73959;SDS011;62316;48.920;2.342;2023-04-24T11:44:28;12.50;;;12.50;;
73959;SDS011;62316;48.920;2.342;2023-04-24T11:46:55;11.75;;;10.00;;
73959;SDS011;62316;48.920;2.342;2023-04-24T11:49:21;13.50;;;13.50;;
73959;SDS011;62316;48.920;2.342;2023-04-24T11:51:46;18.25;;;15.75;;
73959;SDS011;62316;48.920;2.342;2023-04-24T11:54:12;20.00;;;14.50;;
73959;SDS011;62316;48.920;2.342;2023-04-24T11:56:56;22.00;;;17.00;;
73959;SDS011;62316;48.920;2.342;2023-04-24T11:59:22;16.00;;;14.00;;
73959;SDS011;62316;48.920;2.342;2023-04-24T12:01:47;11.75;;;11.25;;
73959;SDS011;62316;48.920;2.342;2023-04-24T12:04:14;16.75;;;15.50;;
73959;SDS011;62316;48.920;2.342;2023-04-24T12:07:02;7.75;;;7.75;;
73959;SDS011;62316;48.920;2.342;2023-04-24T12:09:27;15.50;;;11.75;;
73959;SDS011;62316;48.920;2.342;2023-04-24T12:11:55;8.00;;;8.00;;
73959;SDS011;62316;48.920;2.342;2023-04-24T12:14:24;11.00;;;11.00;;
73959;SDS011;62316;48.920;2.342;2023-04-24T12:16:50;13.75;;;12.00;;
73959;SDS011;62316;48.920;2.342;2023-04-24T12:19:25;10.75;;;10.75;;
73959;SDS011;62316;48.920;2.342;2023-04-24T12:22:05;11.50;;;10.50;;
73959;SDS011;62316;48.920;2.342;2023-04-24T12:24:31;11.50;;;6.25;;
73959;SDS011;62316;48.920;2.342;2023-04-24T12:26:57;12.25;;;12.25;;
73959;SDS011;62316;48.920;2.342;2023-04-24T12:29:26;6.50;;;6.50;;
73959;SDS011;62316;48.920;2.342;2023-04-24T12:31:51;8.75;;;7.00;;
73959;SDS011;62316;48.920;2.342;2023-04-24T12:34:20;7.00;;;7.00;;
73959;SDS011;62316;48.920;2.342;2023-04-24T12:36:46;8.00;;;8.00;;
73959;SDS011;62316;48.920;2.342;2023-04-24T12:39:15;6.00;;;6.00;;
73959;SDS011;62316;48.920;2.342;2023-04-24T12:41:51;5.75;;;5.75;;
73959;SDS011;62316;48.920;2.342;2023-04-24T12:44:31;6.75;;;6.75;;
73959;SDS011;62316;48.920;2.342;2023-04-24T12:46:59;5.75;;;4.00;;
73959;SDS011;62316;48.920;2.342;2023-04-24T12:49:25;4.75;;;4.75;;
73959;SDS011;62316;48.920;2.342;2023-04-24T12:51:50;5.00;;;4.00;;
73959;SDS011;62316;48.920;2.342;2023-04-24T12:54:16;8.00;;;7.50;;
73959;SDS011;62316;48.920;2.342;2023-04-24T12:56:42;5.00;;;5.00;;
73959;SDS011;62316;48.920;2.342;2023-04-24T12:59:07;3.75;;;3.75;;
73959;SDS011;62316;48.920;2.342;2023-04-24T13:01:32;5.25;;;4.25;;
73959;SDS011;62316;48.920;2.342;2023-04-24T13:03:58;3.00;;;3.00;;
73959;SDS011;62316;48.920;2.342;2023-04-24T13:06:23;6.00;;;4.00;;
73959;SDS011;62316;48.920;2.342;2023-04-24T13:08:48;4.50;;;4.50;;
73959;SDS011;62316;48.920;2.342;2023-04-24T13:11:14;8.75;;;5.25;;
73959;SDS011;62316;48.920;2.342;2023-04-24T13:13:39;7.00;;;6.00;;
73959;SDS011;62316;48.920;2.342;2023-04-24T13:16:05;5.75;;;4.00;;
73959;SDS011;62316;48.920;2.342;2023-04-24T13:18:30;6.00;;;6.00;;
73959;SDS011;62316;48.920;2.342;2023-04-24T13:20:55;4.50;;;4.50;;
73959;SDS011;62316;48.920;2.342;2023-04-24T13:23:24;7.25;;;5.00;;
73959;SDS011;62316;48.920;2.342;2023-04-24T13:25:49;6.00;;;4.50;;
73959;SDS011;62316;48.920;2.342;2023-04-24T13:28:15;8.00;;;5.50;;
73959;SDS011;62316;48.920;2.342;2023-04-24T13:30:40;3.75;;;3.50;;
73959;SDS011;62316;48.920;2.342;2023-04-24T13:33:06;4.33;;;4.00;;
73959;SDS011;62316;48.920;2.342;2023-04-24T13:35:41;7.25;;;6.25;;
73959;SDS011;62316;48.920;2.342;2023-04-24T13:38:06;7.75;;;5.50;;
73959;SDS011;62316;48.920;2.342;2023-04-24T13:40:31;3.00;;;3.00;;
73959;SDS011;62316;48.920;2.342;2023-04-24T13:42:57;4.50;;;4.00;;
73959;SDS011;62316;48.920;2.342;2023-04-24T13:45:22;5.00;;;5.00;;
73959;SDS011;62316;48.920;2.342;2023-04-24T13:47:48;2.75;;;2.75;;
73959;SDS011;62316;48.920;2.342;2023-04-24T13:50:13;5.25;;;5.25;;
73959;SDS011;62316;48.920;2.342;2023-04-24T13:52:40;4.00;;;4.00;;
73959;SDS011;62316;48.920;2.342;2023-04-24T13:55:05;5.00;;;4.00;;
73959;SDS011;62316;48.920;2.342;2023-04-24T13:57:31;4.50;;;4.50;;
73959;SDS011;62316;48.920;2.342;2023-04-24T14:00:30;3.67;;;3.67;;
73959;SDS011;62316;48.920;2.342;2023-04-24T14:02:49;4.67;;;3.33;;
73959;SDS011;62316;48.920;2.342;2023-04-24T14:05:14;4.00;;;4.00;;
73959;SDS011;62316;48.920;2.342;2023-04-24T14:07:45;5.75;;;5.00;;
73959;SDS011;62316;48.920;2.342;2023-04-24T14:10:11;5.25;;;5.25;;
73959;SDS011;62316;48.920;2.342;2023-04-24T14:12:36;3.33;;;3.00;;
73959;SDS011;62316;48.920;2.342;2023-04-24T14:15:02;6.00;;;4.33;;
73959;SDS011;62316;48.920;2.342;2023-04-24T14:17:29;5.00;;;4.00;;
73959;SDS011;62316;48.920;2.342;2023-04-24T14:19:55;5.00;;;4.00;;
73959;SDS011;62316;48.920;2.342;2023-04-24T14:22:21;5.00;;;5.00;;
73959;SDS011;62316;48.920;2.342;2023-04-24T14:24:51;4.25;;;4.00;;
73959;SDS011;62316;48.920;2.342;2023-04-24T14:27:17;6.00;;;6.00;;
73959;SDS011;62316;48.920;2.342;2023-04-24T14:29:46;6.00;;;6.00;;
73959;SDS011;62316;48.920;2.342;2023-04-24T14:32:13;5.50;;;5.50;;
73959;SDS011;62316;48.920;2.342;2023-04-24T14:34:43;4.00;;;4.00;;
73959;SDS011;62316;48.920;2.342;2023-04-24T14:37:13;3.50;;;3.50;;
73959;SDS011;62316;48.920;2.342;2023-04-24T14:39:38;3.25;;;3.25;;
73959;SDS011;62316;48.920;2.342;2023-04-24T14:42:05;4.00;;;4.00;;
73959;SDS011;62316;48.920;2.342;2023-04-24T14:44:37;3.00;;;3.00;;
73959;SDS011;62316;48.920;2.342;2023-04-24T14:47:07;3.67;;;2.33;;
73959;SDS011;62316;48.920;2.342;2023-04-24T14:49:34;3.33;;;3.33;;
73959;SDS011;62316;48.920;2.342;2023-04-24T14:52:01;4.25;;;4.25;;
73959;SDS011;62316;48.920;2.342;2023-04-24T14:54:30;3.33;;;3.33;;
73959;SDS011;62316;48.920;2.342;2023-04-24T14:57:06;6.33;;;4.00;;
73959;SDS011;62316;48.920;2.342;2023-04-24T14:59:35;3.67;;;3.67;;
73959;SDS011;62316;48.920;2.342;2023-04-24T15:02:02;4.00;;;4.00;;
73959;SDS011;62316;48.920;2.342;2023-04-24T15:04:28;3.25;;;3.00;;
73959;SDS011;62316;48.920;2.342;2023-04-24T15:06:55;3.00;;;3.00;;
73959;SDS011;62316;48.920;2.342;2023-04-24T15:09:21;5.25;;;5.25;;
73959;SDS011;62316;48.920;2.342;2023-04-24T15:11:48;4.50;;;4.50;;
73959;SDS011;62316;48.920;2.342;2023-04-24T15:14:14;5.00;;;5.00;;
73959;SDS011;62316;48.920;2.342;2023-04-24T15:16:40;2.75;;;2.75;;
73959;SDS011;62316;48.920;2.342;2023-04-24T15:19:06;6.50;;;5.50;;
73959;SDS011;62316;48.920;2.342;2023-04-24T15:21:38;4.00;;;1.33;;
73959;SDS011;62316;48.920;2.342;2023-04-24T15:24:05;3.00;;;3.00;;
73959;SDS011;62316;48.920;2.342;2023-04-24T15:26:30;1.33;;;1.33;;
73959;SDS011;62316;48.920;2.342;2023-04-24T15:28:56;3.00;;;3.00;;
73959;SDS011;62316;48.920;2.342;2023-04-24T15:31:22;3.00;;;3.00;;
73959;SDS011;62316;48.920;2.342;2023-04-24T15:33:48;3.67;;;3.00;;
73959;SDS011;62316;48.920;2.342;2023-04-24T15:36:14;2.67;;;2.67;;
73959;SDS011;62316;48.920;2.342;2023-04-24T15:38:40;3.25;;;2.00;;
73959;SDS011;62316;48.920;2.342;2023-04-24T15:41:11;2.33;;;2.33;;
73959;SDS011;62316;48.920;2.342;2023-04-24T15:43:37;2.25;;;2.25;;
73959;SDS011;62316;48.920;2.342;2023-04-24T15:46:04;3.00;;;3.00;;
73959;SDS011;62316;48.920;2.342;2023-04-24T15:48:29;4.75;;;3.00;;
73959;SDS011;62316;48.920;2.342;2023-04-24T15:50:55;4.33;;;3.00;;
73959;SDS011;62316;48.920;2.342;2023-04-24T15:53:20;4.00;;;3.00;;
73959;SDS011;62316;48.920;2.342;2023-04-24T15:56:04;4.00;;;4.00;;
73959;SDS011;62316;48.920;2.342;2023-04-24T15:58:30;4.33;;;4.33;;
73959;SDS011;62316;48.920;2.342;2023-04-24T16:01:19;4.67;;;2.00;;
73959;SDS011;62316;48.920;2.342;2023-04-24T16:03:57;3.50;;;3.50;;
73959;SDS011;62316;48.920;2.342;2023-04-24T16:06:23;4.00;;;4.00;;
73959;SDS011;62316;48.920;2.342;2023-04-24T16:08:48;3.00;;;3.00;;
73959;SDS011;62316;48.920;2.342;2023-04-24T16:11:14;3.67;;;3.67;;
73959;SDS011;62316;48.920;2.342;2023-04-24T16:13:40;4.00;;;4.00;;
73959;SDS011;62316;48.920;2.342;2023-04-24T16:16:05;4.00;;;4.00;;
73959;SDS011;62316;48.920;2.342;2023-04-24T16:18:31;4.00;;;3.33;;
73959;SDS011;62316;48.920;2.342;2023-04-24T16:20:56;3.33;;;3.33;;
73959;SDS011;62316;48.920;2.342;2023-04-24T16:23:25;5.67;;;5.00;;
73959;SDS011;62316;48.920;2.342;2023-04-24T16:25:51;4.00;;;4.00;;
73959;SDS011;62316;48.920;2.342;2023-04-24T16:28:17;4.00;;;4.00;;
73959;SDS011;62316;48.920;2.342;2023-04-24T16:30:50;5.50;;;4.50;;
73959;SDS011;62316;48.920;2.342;2023-04-24T16:33:15;5.50;;;5.50;;
73959;SDS011;62316;48.920;2.342;2023-04-24T16:35:40;4.00;;;4.00;;
73959;SDS011;62316;48.920;2.342;2023-04-24T16:38:07;3.67;;;3.67;;
73959;SDS011;62316;48.920;2.342;2023-04-24T16:40:32;5.00;;;4.00;;
73959;SDS011;62316;48.920;2.342;2023-04-24T16:43:12;6.00;;;3.33;;
73959;SDS011;62316;48.920;2.342;2023-04-24T16:45:38;6.50;;;5.50;;
73959;SDS011;62316;48.920;2.342;2023-04-24T16:48:06;6.75;;;5.00;;
73959;SDS011;62316;48.920;2.342;2023-04-24T16:50:33;6.00;;;3.67;;
73959;SDS011;62316;48.920;2.342;2023-04-24T16:52:58;3.50;;;3.50;;
73959;SDS011;62316;48.920;2.342;2023-04-24T16:55:24;6.00;;;5.00;;
73959;SDS011;62316;48.920;2.342;2023-04-24T16:57:55;7.25;;;7.00;;
73959;SDS011;62316;48.920;2.342;2023-04-24T17:00:52;6.75;;;6.75;;
73959;SDS011;62316;48.920;2.342;2023-04-24T17:03:30;6.75;;;6.25;;
73959;SDS011;62316;48.920;2.342;2023-04-24T17:05:55;8.00;;;5.75;;
73959;SDS011;62316;48.920;2.342;2023-04-24T17:08:21;5.00;;;5.00;;
73959;SDS011;62316;48.920;2.342;2023-04-24T17:11:07;5.00;;;5.00;;
73959;SDS011;62316;48.920;2.342;2023-04-24T17:13:36;7.00;;;5.00;;
73959;SDS011;62316;48.920;2.342;2023-04-24T17:16:02;5.25;;;3.50;;
73959;SDS011;62316;48.920;2.342;2023-04-24T17:18:28;6.00;;;6.00;;
73959;SDS011;62316;48.920;2.342;2023-04-24T17:23:43;5.00;;;5.00;;
73959;SDS011;62316;48.920;2.342;2023-04-24T17:26:47;4.75;;;4.75;;
73959;SDS011;62316;48.920;2.342;2023-04-24T17:32:53;4.25;;;2.75;;
73959;SDS011;62316;48.920;2.342;2023-04-24T17:38:35;3.00;;;3.00;;
73959;SDS011;62316;48.920;2.342;2023-04-24T17:41:01;2.00;;;2.00;;
73959;SDS011;62316;48.920;2.342;2023-04-24T17:43:26;3.00;;;3.00;;
73959;SDS011;62316;48.920;2.342;2023-04-24T17:45:52;4.33;;;4.33;;
73959;SDS011;62316;48.920;2.342;2023-04-24T17:48:40;6.25;;;6.25;;
73959;SDS011;62316;48.920;2.342;2023-04-24T17:51:08;3.00;;;3.00;;
73959;SDS011;62316;48.920;2.342;2023-04-24T17:53:34;3.00;;;3.00;;
73959;SDS011;62316;48.920;2.342;2023-04-24T17:55:59;2.25;;;2.00;;
73959;SDS011;62316;48.920;2.342;2023-04-24T17:58:32;3.67;;;3.67;;
73959;SDS011;62316;48.920;2.342;2023-04-24T18:01:11;6.75;;;6.00;;
73959;SDS011;62316;48.920;2.342;2023-04-24T18:03:40;4.00;;;4.00;;
73959;SDS011;62316;48.920;2.342;2023-04-24T18:06:08;3.00;;;3.00;;
73959;SDS011;62316;48.920;2.342;2023-04-24T18:08:34;5.50;;;4.00;;
73959;SDS011;62316;48.920;2.342;2023-04-24T18:10:59;5.25;;;5.25;;
73959;SDS011;62316;48.920;2.342;2023-04-24T18:13:25;3.00;;;2.75;;
73959;SDS011;62316;48.920;2.342;2023-04-24T18:16:06;2.75;;;2.75;;
73959;SDS011;62316;48.920;2.342;2023-04-24T18:18:34;4.00;;;4.00;;
73959;SDS011;62316;48.920;2.342;2023-04-24T18:21:00;5.75;;;5.75;;
73959;SDS011;62316;48.920;2.342;2023-04-24T18:23:26;6.00;;;4.50;;
73959;SDS011;62316;48.920;2.342;2023-04-24T18:28:57;8.00;;;6.00;;
73959;SDS011;62316;48.920;2.342;2023-04-24T18:31:23;7.00;;;7.00;;
73959;SDS011;62316;48.920;2.342;2023-04-24T18:33:58;6.50;;;6.50;;
73959;SDS011;62316;48.920;2.342;2023-04-24T18:36:23;3.50;;;3.50;;
73959;SDS011;62316;48.920;2.342;2023-04-24T18:38:55;4.75;;;4.25;;
73959;SDS011;62316;48.920;2.342;2023-04-24T18:41:27;4.75;;;4.75;;
73959;SDS011;62316;48.920;2.342;2023-04-24T18:44:12;5.50;;;5.50;;
73959;SDS011;62316;48.920;2.342;2023-04-24T18:46:39;6.50;;;5.00;;
73959;SDS011;62316;48.920;2.342;2023-04-24T18:49:08;7.25;;;6.50;;
73959;SDS011;62316;48.920;2.342;2023-04-24T18:51:37;7.00;;;5.00;;
73959;SDS011;62316;48.920;2.342;2023-04-24T18:54:04;13.50;;;7.50;;
73959;SDS011;62316;48.920;2.342;2023-04-24T18:56:42;6.00;;;6.00;;
73959;SDS011;62316;48.920;2.342;2023-04-24T18:59:11;9.00;;;9.00;;
73959;SDS011;62316;48.920;2.342;2023-04-24T19:01:40;10.33;;;10.33;;
73959;SDS011;62316;48.920;2.342;2023-04-24T19:04:10;11.50;;;9.50;;
73959;SDS011;62316;48.920;2.342;2023-04-24T19:06:36;8.25;;;7.25;;
73959;SDS011;62316;48.920;2.342;2023-04-24T19:09:06;6.75;;;6.00;;
73959;SDS011;62316;48.920;2.342;2023-04-24T19:11:40;5.25;;;5.25;;
73959;SDS011;62316;48.920;2.342;2023-04-24T19:14:14;7.50;;;7.50;;
73959;SDS011;62316;48.920;2.342;2023-04-24T19:20:38;7.25;;;7.00;;